Time;durP1;ratioP1;P1;durP2;ratioP2;P2;SDS_P1;SDS_P2;PMS_P1;PMS_P2;Temp;Humidity;BMP_temperature;BMP_pressure;BME280_temperature;BME280_humidity;BME280_pressure;Samples;Min_cycle;Max_cycle;Signal;HPM_P1;HPM_P2
2023/07/02 00:01:49;;;;;;;7.93;5.00;;;17.10;99.90;;;;;;4861408;29;20053;-73
2023/07/02 00:04:16;;;;;;;8.10;4.68;;;17.10;99.90;;;;;;4878294;29;20068;-73
2023/07/02 00:06:43;;;;;;;5.75;4.32;;;17.10;99.90;;;;;;4878160;29;20113;-73
2023/07/02 00:09:12;;;;;;;10.05;4.30;;;17.10;99.90;;;;;;4878045;29;20610;-73
2023/07/02 00:11:39;;;;;;;9.15;4.15;;;17.00;99.90;;;;;;4878024;29;20052;-73
2023/07/02 00:14:05;;;;;;;7.03;4.05;;;17.00;99.90;;;;;;4861159;29;20061;-73
2023/07/02 00:16:31;;;;;;;9.50;4.95;;;17.00;99.90;;;;;;4878249;29;20045;-73
2023/07/02 00:18:59;;;;;;;7.15;4.30;;;17.00;99.90;;;;;;4877923;29;20067;-73
2023/07/02 00:21:28;;;;;;;8.05;4.05;;;17.00;99.90;;;;;;4877685;29;20053;-73
2023/07/02 00:23:58;;;;;;;11.65;4.82;;;17.00;99.90;;;;;;4878021;29;20253;-73
2023/07/02 00:26:27;;;;;;;10.95;4.50;;;17.00;99.90;;;;;;4860965;29;20064;-73
2023/07/02 00:28:54;;;;;;;7.90;4.18;;;17.00;99.90;;;;;;4877989;29;20386;-73
2023/07/02 00:31:20;;;;;;;7.10;4.10;;;17.00;99.90;;;;;;4877686;29;20049;-73
2023/07/02 00:33:46;;;;;;;8.43;4.30;;;17.00;99.90;;;;;;4860662;29;20052;-74
2023/07/02 00:36:14;;;;;;;5.75;4.07;;;16.90;99.90;;;;;;4860739;29;20064;-73
2023/07/02 00:38:42;;;;;;;8.40;4.82;;;16.90;99.90;;;;;;4877712;29;20061;-73
2023/07/02 00:41:08;;;;;;;6.82;4.60;;;16.90;99.90;;;;;;4877427;29;20124;-73
2023/07/02 00:43:34;;;;;;;7.32;4.22;;;16.90;99.90;;;;;;4877573;29;20060;-74
2023/07/02 00:46:00;;;;;;;6.30;3.92;;;16.80;99.90;;;;;;4860586;29;20067;-73
2023/07/02 00:48:26;;;;;;;8.65;4.35;;;16.80;99.90;;;;;;4860412;29;20065;-73
2023/07/02 00:50:52;;;;;;;7.53;4.55;;;16.80;99.90;;;;;;4877300;29;20061;-73
2023/07/02 00:53:18;;;;;;;7.72;4.45;;;16.80;99.90;;;;;;4860455;29;20080;-73
2023/07/02 00:55:43;;;;;;;9.85;4.88;;;16.70;99.90;;;;;;4860950;29;20417;-73
2023/07/02 00:58:09;;;;;;;7.07;4.57;;;16.70;99.90;;;;;;4877274;29;20049;-74
2023/07/02 01:00:36;;;;;;;5.50;4.38;;;16.70;99.90;;;;;;4877755;29;20041;-73
2023/07/02 01:03:02;;;;;;;9.48;4.25;;;16.70;99.90;;;;;;4860309;29;20129;-73
2023/07/02 01:05:37;;;;;;;7.63;4.47;;;16.70;99.90;;;;;;4860881;29;20060;-73
2023/07/02 01:08:04;;;;;;;6.72;4.00;;;16.60;99.90;;;;;;4876838;29;20057;-73
2023/07/02 01:10:30;;;;;;;8.07;4.50;;;16.60;99.90;;;;;;4877271;29;20059;-73
2023/07/02 01:13:00;;;;;;;7.53;4.68;;;16.60;99.90;;;;;;4876997;29;20093;-73
2023/07/02 01:15:26;;;;;;;7.50;4.60;;;16.60;99.90;;;;;;4877051;29;20052;-73
2023/07/02 01:17:53;;;;;;;12.60;4.90;;;16.60;99.90;;;;;;4876978;29;20428;-73
2023/07/02 01:20:20;;;;;;;10.80;4.10;;;16.60;99.90;;;;;;4860446;29;20136;-73
2023/07/02 01:22:48;;;;;;;7.85;4.85;;;16.50;99.90;;;;;;4878286;29;20589;-73
2023/07/02 01:25:15;;;;;;;7.40;4.28;;;16.60;99.90;;;;;;4882459;29;20065;-73
2023/07/02 01:27:41;;;;;;;6.38;4.38;;;16.60;99.90;;;;;;4890798;29;20056;-73
2023/07/02 01:30:09;;;;;;;9.30;4.57;;;16.50;99.90;;;;;;4878712;29;20045;-72
2023/07/02 01:32:34;;;;;;;10.35;4.32;;;16.50;99.90;;;;;;4879236;29;20061;-73
2023/07/02 01:35:00;;;;;;;7.75;4.50;;;16.40;99.90;;;;;;4877102;29;20466;-73
2023/07/02 01:37:26;;;;;;;8.70;5.10;;;16.40;99.90;;;;;;4860338;29;20061;-73
2023/07/02 01:39:52;;;;;;;9.95;4.53;;;16.40;99.90;;;;;;4876813;29;20060;-73
2023/07/02 01:42:19;;;;;;;10.32;4.32;;;16.30;99.90;;;;;;4876507;29;20414;-73
2023/07/02 01:44:51;;;;;;;9.50;4.38;;;16.40;99.90;;;;;;4876791;29;20137;-72
2023/07/02 01:47:16;;;;;;;11.10;4.82;;;16.30;99.90;;;;;;4876977;29;20500;-73
2023/07/02 01:49:42;;;;;;;8.45;4.80;;;16.20;99.90;;;;;;4877092;29;20052;-73
2023/07/02 01:52:08;;;;;;;12.32;4.90;;;16.20;99.90;;;;;;4860001;29;20053;-73
2023/07/02 01:54:35;;;;;;;13.00;5.25;;;16.20;99.90;;;;;;4876873;29;20072;-73
2023/07/02 01:57:01;;;;;;;10.98;4.53;;;16.10;99.90;;;;;;4877828;29;20049;-73
2023/07/02 01:59:27;;;;;;;10.90;4.90;;;16.10;99.90;;;;;;4878660;29;20128;-73
2023/07/02 02:01:52;;;;;;;13.35;4.93;;;16.10;99.90;;;;;;4878322;29;20139;-73
2023/07/02 02:04:18;;;;;;;11.13;4.80;;;16.10;99.90;;;;;;4895486;29;20056;-73
2023/07/02 02:06:44;;;;;;;12.70;5.78;;;16.00;99.90;;;;;;4878470;29;20064;-73
2023/07/02 02:09:10;;;;;;;19.17;6.28;;;16.10;99.90;;;;;;4895372;29;20048;-73
2023/07/02 02:11:41;;;;;;;13.73;5.00;;;16.10;99.90;;;;;;4895211;29;20044;-73
2023/07/02 02:14:07;;;;;;;21.55;5.25;;;16.00;99.90;;;;;;4894954;29;20186;-73
2023/07/02 02:16:33;;;;;;;11.20;5.20;;;16.00;99.90;;;;;;4895156;29;20063;-72
2023/07/02 02:19:00;;;;;;;14.25;5.43;;;15.90;99.90;;;;;;4897127;29;20503;-72
2023/07/02 02:21:26;;;;;;;17.50;6.20;;;16.00;99.90;;;;;;4898659;29;20053;-73
2023/07/02 02:23:51;;;;;;;17.90;5.88;;;15.90;99.90;;;;;;4909312;29;20051;-73
2023/07/02 02:26:17;;;;;;;12.57;5.05;;;15.90;99.90;;;;;;4917496;29;20052;-73
2023/07/02 02:28:43;;;;;;;16.10;5.93;;;15.90;99.90;;;;;;4917295;29;20496;-72
2023/07/02 02:31:09;;;;;;;17.52;6.57;;;15.90;99.90;;;;;;4900378;29;20059;-73
2023/07/02 02:33:35;;;;;;;14.85;5.95;;;15.90;99.90;;;;;;4917259;29;20066;-73
2023/07/02 02:36:04;;;;;;;19.60;6.35;;;15.80;99.90;;;;;;4917506;29;20127;-73
2023/07/02 02:38:29;;;;;;;19.30;6.80;;;15.80;99.90;;;;;;4900140;29;20559;-73
2023/07/02 02:40:55;;;;;;;20.58;6.38;;;15.70;99.90;;;;;;4917124;29;20044;-72
2023/07/02 02:43:22;;;;;;;15.25;6.30;;;15.70;99.90;;;;;;4900099;29;20453;-72
2023/07/02 02:45:48;;;;;;;21.85;7.40;;;15.70;99.90;;;;;;4917422;29;20054;-72
2023/07/02 02:48:13;;;;;;;20.45;6.65;;;15.70;99.90;;;;;;4917250;29;20564;-73
2023/07/02 02:50:41;;;;;;;17.05;6.40;;;15.80;99.90;;;;;;4899965;29;20067;-73
2023/07/02 02:53:07;;;;;;;13.70;5.88;;;15.60;99.90;;;;;;4899831;29;20067;-73
2023/07/02 02:55:33;;;;;;;16.55;6.63;;;15.70;99.90;;;;;;4916961;29;20048;-72
2023/07/02 02:57:59;;;;;;;23.23;6.85;;;15.60;99.90;;;;;;4899740;29;20472;-72
2023/07/02 03:00:25;;;;;;;21.15;6.82;;;15.60;99.90;;;;;;4916758;29;20058;-73
2023/07/02 03:02:51;;;;;;;21.83;6.90;;;15.60;99.90;;;;;;4900006;29;20056;-73
2023/07/02 03:05:16;;;;;;;20.55;6.85;;;15.60;99.90;;;;;;4916738;29;20048;-73
2023/07/02 03:07:42;;;;;;;20.25;6.95;;;15.60;99.90;;;;;;4917093;29;20044;-73
2023/07/02 03:10:08;;;;;;;15.05;6.88;;;15.50;99.90;;;;;;4916753;29;20106;-72
2023/07/02 03:12:34;;;;;;;17.95;7.00;;;15.50;99.90;;;;;;4899666;29;20254;-72
2023/07/02 03:15:00;;;;;;;19.88;7.78;;;15.50;99.90;;;;;;4900188;29;20149;-73
2023/07/02 03:17:26;;;;;;;20.75;6.88;;;15.50;99.90;;;;;;4916571;29;20048;-73
2023/07/02 03:19:51;;;;;;;21.42;8.43;;;15.40;99.90;;;;;;4899370;29;20052;-73
2023/07/02 03:22:17;;;;;;;17.13;5.97;;;15.40;99.90;;;;;;4899481;29;20052;-73
2023/07/02 03:24:43;;;;;;;17.90;7.20;;;15.40;99.90;;;;;;4916571;29;20123;-72
2023/07/02 03:27:09;;;;;;;20.65;7.13;;;15.30;99.90;;;;;;4916021;29;20052;-72
2023/07/02 03:29:35;;;;;;;19.23;7.55;;;15.40;99.90;;;;;;4899059;29;20052;-73
2023/07/02 03:32:02;;;;;;;22.90;7.50;;;15.40;99.90;;;;;;4915825;29;20074;-73
2023/07/02 03:34:28;;;;;;;17.13;6.95;;;15.30;99.90;;;;;;4916311;29;20139;-73
2023/07/02 03:36:53;;;;;;;21.08;6.90;;;15.30;99.90;;;;;;4916300;29;20135;-73
2023/07/02 03:39:19;;;;;;;19.55;7.10;;;15.30;99.90;;;;;;4899186;29;20060;-72
2023/07/02 03:41:45;;;;;;;18.63;6.25;;;15.30;99.90;;;;;;4898685;29;20068;-72
2023/07/02 03:44:11;;;;;;;21.80;6.82;;;15.30;99.90;;;;;;4899299;29;20056;-73
2023/07/02 03:46:36;;;;;;;30.50;7.88;;;15.30;99.90;;;;;;4916104;29;20480;-73
2023/07/02 03:49:05;;;;;;;21.80;7.30;;;15.30;99.90;;;;;;4899191;29;20048;-73
2023/07/02 03:51:31;;;;;;;19.67;7.43;;;15.20;99.90;;;;;;4916197;29;20408;-73
2023/07/02 03:54:00;;;;;;;22.45;7.40;;;15.30;99.90;;;;;;4915962;29;20091;-73
2023/07/02 03:56:26;;;;;;;22.80;7.28;;;15.20;99.90;;;;;;4916116;29;20091;-73
2023/07/02 03:58:52;;;;;;;25.50;8.13;;;15.20;99.90;;;;;;4916149;29;20630;-73
2023/07/02 04:01:18;;;;;;;19.50;7.30;;;15.20;99.90;;;;;;4899444;29;20462;-73
2023/07/02 04:03:54;;;;;;;24.88;7.75;;;15.20;99.90;;;;;;4915885;29;20083;-73
2023/07/02 04:06:19;;;;;;;28.77;7.80;;;15.30;99.90;;;;;;4915718;29;20488;-73
2023/07/02 04:08:45;;;;;;;14.93;6.28;;;15.20;99.90;;;;;;4915959;29;20051;-73
2023/07/02 04:11:12;;;;;;;21.30;8.32;;;15.30;99.90;;;;;;4915705;29;20381;-73
2023/07/02 04:13:38;;;;;;;28.25;7.65;;;15.40;99.90;;;;;;4915779;29;20079;-73
2023/07/02 04:16:04;;;;;;;21.02;7.38;;;15.50;99.90;;;;;;4916456;29;20059;-73
2023/07/02 04:18:30;;;;;;;25.75;7.18;;;15.50;99.90;;;;;;4899187;29;20044;-73
2023/07/02 04:20:57;;;;;;;22.05;7.55;;;15.60;99.90;;;;;;4915868;29;20638;-72
2023/07/02 04:23:22;;;;;;;26.70;6.85;;;15.70;99.90;;;;;;4898355;29;20052;-73
2023/07/02 04:25:48;;;;;;;23.40;6.97;;;15.70;99.90;;;;;;4915413;29;20052;-73
2023/07/02 04:28:14;;;;;;;18.65;6.70;;;15.70;99.90;;;;;;4915198;29;20095;-73
2023/07/02 04:30:39;;;;;;;22.55;7.10;;;15.80;99.90;;;;;;4898143;29;20048;-73
2023/07/02 04:33:05;;;;;;;22.50;7.90;;;15.90;99.90;;;;;;4915406;29;20044;-73
2023/07/02 04:35:32;;;;;;;22.20;7.22;;;15.90;99.90;;;;;;4915391;29;20108;-72
2023/07/02 04:37:58;;;;;;;26.75;7.60;;;16.00;99.90;;;;;;4915228;29;20040;-73
2023/07/02 04:40:24;;;;;;;17.55;6.50;;;16.00;99.90;;;;;;4914867;29;20060;-72
2023/07/02 04:42:57;;;;;;;25.02;7.75;;;16.00;99.90;;;;;;4914031;29;20083;-72
2023/07/02 04:45:24;;;;;;;20.13;6.30;;;15.90;99.90;;;;;;4915074;29;20381;-72
2023/07/02 04:47:50;;;;;;;24.77;7.07;;;15.90;99.90;;;;;;4914850;29;20048;-72
2023/07/02 04:50:17;;;;;;;24.83;7.72;;;15.90;99.90;;;;;;4897910;29;20052;-72
2023/07/02 04:52:43;;;;;;;30.35;8.18;;;15.90;99.90;;;;;;4914956;29;20052;-72
2023/07/02 04:55:09;;;;;;;19.35;6.97;;;15.80;99.90;;;;;;4914623;29;20052;-72
2023/07/02 04:57:34;;;;;;;25.25;7.15;;;15.80;99.90;;;;;;4914853;29;20162;-72
2023/07/02 05:00:00;;;;;;;20.58;6.78;;;15.80;99.90;;;;;;4914975;29;20089;-72
2023/07/02 05:02:26;;;;;;;22.40;7.20;;;15.80;99.90;;;;;;4914690;29;20408;-72
2023/07/02 05:04:51;;;;;;;20.58;7.20;;;15.90;99.90;;;;;;4914592;29;20047;-72
2023/07/02 05:07:17;;;;;;;20.88;6.95;;;16.10;99.90;;;;;;4914901;29;20145;-72
2023/07/02 05:09:43;;;;;;;17.88;7.15;;;16.30;99.90;;;;;;4914651;29;20404;-72
2023/07/02 05:12:09;;;;;;;19.40;7.78;;;16.30;99.90;;;;;;4914212;29;20052;-72
2023/07/02 05:14:35;;;;;;;22.73;7.05;;;16.50;99.90;;;;;;4897503;29;20063;-72
2023/07/02 05:17:01;;;;;;;20.25;7.40;;;16.60;99.90;;;;;;4893472;29;20052;-72
2023/07/02 05:19:26;;;;;;;25.33;8.23;;;16.70;99.90;;;;;;4887787;29;20128;-72
2023/07/02 05:21:52;;;;;;;19.23;7.70;;;16.90;99.90;;;;;;4877227;29;20153;-72
2023/07/02 05:24:18;;;;;;;24.98;7.68;;;17.00;99.90;;;;;;4887573;29;20508;-72
2023/07/02 05:26:44;;;;;;;22.92;7.07;;;17.00;99.90;;;;;;4878699;29;20069;-72
2023/07/02 05:29:10;;;;;;;20.10;7.03;;;17.20;99.90;;;;;;4895846;29;20499;-73
2023/07/02 05:31:35;;;;;;;23.45;7.05;;;17.20;99.90;;;;;;4895589;29;20135;-73
2023/07/02 05:34:01;;;;;;;19.50;7.20;;;17.30;99.90;;;;;;4878454;29;20056;-73
2023/07/02 05:36:27;;;;;;;14.70;6.38;;;17.40;99.90;;;;;;4895668;29;20049;-73
2023/07/02 05:38:52;;;;;;;19.48;7.13;;;17.40;99.90;;;;;;4878648;29;20052;-73
2023/07/02 05:41:19;;;;;;;27.25;7.50;;;17.50;99.90;;;;;;4886149;29;20532;-73
2023/07/02 05:43:45;;;;;;;23.92;7.25;;;17.60;99.90;;;;;;4876988;29;20053;-73
2023/07/02 05:46:12;;;;;;;20.77;7.10;;;17.70;99.90;;;;;;4876701;29;20474;-73
2023/07/02 05:48:37;;;;;;;25.02;7.15;;;17.70;99.90;;;;;;4860135;29;20492;-73
2023/07/02 05:51:03;;;;;;;24.60;7.50;;;17.80;99.90;;;;;;4876966;29;20060;-73
2023/07/02 05:53:29;;;;;;;30.17;7.15;;;17.80;99.90;;;;;;4860638;29;20394;-73
2023/07/02 05:55:55;;;;;;;22.73;6.88;;;17.90;99.90;;;;;;4863704;29;20433;-73
2023/07/02 05:58:21;;;;;;;25.05;6.88;;;18.00;99.90;;;;;;4880414;29;20063;-73
2023/07/02 06:00:49;;;;;;;24.60;7.05;;;18.10;99.90;;;;;;4880681;29;20049;-73
2023/07/02 06:03:21;;;;;;;24.17;8.50;;;18.10;99.90;;;;;;4880112;29;20512;-74
2023/07/02 06:05:48;;;;;;;22.25;7.68;;;18.20;99.90;;;;;;4863565;29;20053;-73
2023/07/02 06:08:15;;;;;;;23.23;7.50;;;18.30;99.90;;;;;;4880141;29;20049;-74
2023/07/02 06:10:41;;;;;;;25.35;7.35;;;18.30;99.90;;;;;;4880318;29;20049;-74
2023/07/02 06:13:06;;;;;;;20.30;7.90;;;18.30;99.90;;;;;;4879947;29;20416;-73
2023/07/02 06:15:32;;;;;;;20.42;7.57;;;18.40;99.90;;;;;;4880264;29;20041;-73
2023/07/02 06:17:58;;;;;;;20.65;6.75;;;18.50;99.90;;;;;;4863871;29;20049;-73
2023/07/02 06:20:23;;;;;;;20.38;7.40;;;18.50;99.90;;;;;;4879618;29;20060;-74
2023/07/02 06:22:49;;;;;;;21.20;6.43;;;18.50;99.90;;;;;;4881664;29;20064;-74
2023/07/02 06:25:15;;;;;;;24.95;7.60;;;18.60;99.90;;;;;;4898505;29;20056;-74
2023/07/02 06:27:40;;;;;;;19.88;6.53;;;18.70;99.90;;;;;;4884278;29;20417;-73
2023/07/02 06:30:07;;;;;;;25.40;7.50;;;18.80;99.90;;;;;;4886573;29;20060;-72
2023/07/02 06:32:32;;;;;;;17.17;6.93;;;18.80;99.90;;;;;;4903346;29;20049;-73
2023/07/02 06:34:58;;;;;;;21.48;6.78;;;18.90;99.90;;;;;;4871105;29;20063;-74
2023/07/02 06:37:24;;;;;;;17.88;5.72;;;18.90;99.90;;;;;;4886569;29;20090;-74
2023/07/02 06:39:49;;;;;;;27.73;7.18;;;19.00;99.90;;;;;;4903436;29;20040;-73
2023/07/02 06:42:15;;;;;;;18.35;6.43;;;19.00;99.90;;;;;;4886315;29;20496;-74
2023/07/02 06:44:41;;;;;;;21.95;6.43;;;19.00;99.90;;;;;;4880826;29;20232;-72
2023/07/02 06:47:07;;;;;;;20.30;6.75;;;19.10;99.90;;;;;;4897841;29;20052;-72
2023/07/02 06:49:33;;;;;;;20.73;5.97;;;19.10;99.90;;;;;;4881655;29;20056;-72
2023/07/02 06:52:01;;;;;;;15.77;6.05;;;19.00;99.90;;;;;;4880880;29;20052;-73
2023/07/02 06:54:27;;;;;;;19.48;6.28;;;19.00;99.90;;;;;;4898148;29;20131;-73
2023/07/02 06:56:53;;;;;;;16.42;6.10;;;18.90;99.90;;;;;;4881190;29;20131;-73
2023/07/02 06:59:22;;;;;;;21.83;6.10;;;18.90;99.90;;;;;;4881223;29;20049;-75
2023/07/02 07:01:49;;;;;;;23.58;6.13;;;18.90;99.90;;;;;;4898301;29;20457;-74
2023/07/02 07:04:15;;;;;;;19.52;6.47;;;19.00;99.90;;;;;;4897825;29;20054;-74
2023/07/02 07:06:42;;;;;;;18.27;5.97;;;19.00;99.90;;;;;;4864665;29;20057;-74
2023/07/02 07:09:07;;;;;;;14.85;5.70;;;19.20;99.90;;;;;;4880802;29;20120;-74
2023/07/02 07:11:33;;;;;;;15.68;5.65;;;19.30;99.90;;;;;;4897551;29;20052;-74
2023/07/02 07:13:59;;;;;;;19.35;5.82;;;19.10;99.90;;;;;;4897506;29;20064;-74
2023/07/02 07:16:25;;;;;;;18.10;5.90;;;19.00;99.90;;;;;;4880805;29;20055;-73
2023/07/02 07:18:50;;;;;;;13.68;4.88;;;19.00;99.90;;;;;;4880570;29;20186;-74
2023/07/02 07:21:16;;;;;;;17.35;5.90;;;19.10;99.90;;;;;;4897730;29;20404;-74
2023/07/02 07:23:42;;;;;;;14.10;5.38;;;19.10;99.90;;;;;;4880656;29;20056;-74
2023/07/02 07:26:07;;;;;;;19.65;5.28;;;19.10;99.90;;;;;;4880846;29;20127;-72
2023/07/02 07:28:33;;;;;;;14.90;5.53;;;19.10;99.90;;;;;;4897260;29;20044;-73
2023/07/02 07:30:59;;;;;;;18.98;5.47;;;19.30;99.90;;;;;;4876767;29;20060;-73
2023/07/02 07:33:25;;;;;;;14.52;5.40;;;19.30;99.90;;;;;;4887534;29;20049;-73
2023/07/02 07:35:50;;;;;;;14.52;5.03;;;19.20;99.90;;;;;;4854715;29;20048;-74
2023/07/02 07:38:16;;;;;;;14.45;5.20;;;19.10;99.90;;;;;;4878746;29;20067;-73
2023/07/02 07:40:45;;;;;;;16.25;5.68;;;19.10;99.90;;;;;;4890040;29;20041;-73
2023/07/02 07:43:11;;;;;;;15.60;6.40;;;19.00;99.90;;;;;;4886814;29;20064;-73
2023/07/02 07:45:37;;;;;;;20.70;5.45;;;18.90;99.90;;;;;;4887929;29;20068;-73
2023/07/02 07:48:04;;;;;;;14.73;5.80;;;19.00;99.90;;;;;;4871465;29;20076;-73
2023/07/02 07:50:30;;;;;;;24.92;5.50;;;19.00;99.90;;;;;;4866335;29;20060;-74
2023/07/02 07:52:55;;;;;;;14.18;5.22;;;19.00;99.90;;;;;;4878298;29;20072;-74
2023/07/02 07:55:21;;;;;;;15.57;5.15;;;19.00;99.90;;;;;;4878388;29;20057;-74
2023/07/02 07:57:47;;;;;;;14.45;4.82;;;19.00;99.90;;;;;;4861459;29;20472;-74
2023/07/02 08:00:13;;;;;;;13.30;4.55;;;19.10;99.90;;;;;;4878045;29;20052;-73
2023/07/02 08:02:39;;;;;;;10.95;4.38;;;19.30;99.90;;;;;;4861528;29;20405;-75
2023/07/02 08:05:05;;;;;;;13.80;3.92;;;19.40;99.90;;;;;;4861205;29;20061;-74
2023/07/02 08:07:31;;;;;;;9.88;4.10;;;19.40;99.90;;;;;;4861292;29;20053;-74
2023/07/02 08:09:57;;;;;;;18.52;3.90;;;19.60;99.90;;;;;;4861572;29;20053;-74
2023/07/02 08:12:23;;;;;;;9.65;3.47;;;19.70;99.90;;;;;;4861041;29;20793;-74
2023/07/02 08:14:49;;;;;;;12.63;3.65;;;19.70;99.90;;;;;;4861694;29;20056;-74
2023/07/02 08:17:15;;;;;;;11.50;3.58;;;19.60;99.90;;;;;;4861096;29;20049;-74
2023/07/02 08:19:41;;;;;;;11.73;3.97;;;19.60;99.90;;;;;;4877964;29;20557;-74
2023/07/02 08:22:07;;;;;;;14.45;3.92;;;19.50;99.90;;;;;;4861100;29;20053;-73
2023/07/02 08:24:33;;;;;;;16.48;4.03;;;19.40;99.90;;;;;;4877954;29;20049;-73
2023/07/02 08:26:59;;;;;;;9.95;3.15;;;19.40;99.90;;;;;;4861228;29;20097;-74
2023/07/02 08:29:25;;;;;;;8.95;4.18;;;19.40;99.90;;;;;;4861624;29;20053;-74
2023/07/02 08:31:50;;;;;;;9.65;3.10;;;19.40;99.90;;;;;;4878087;29;20145;-75
2023/07/02 08:34:16;;;;;;;8.80;3.33;;;19.40;99.90;;;;;;4861101;29;20068;-74
2023/07/02 08:36:43;;;;;;;9.10;2.78;;;19.50;99.90;;;;;;4861179;29;20466;-74
2023/07/02 08:39:10;;;;;;;10.43;3.03;;;19.60;99.90;;;;;;4860916;29;20049;-74
2023/07/02 08:41:44;;;;;;;7.57;3.05;;;19.80;99.90;;;;;;4860911;29;20049;-73
2023/07/02 08:44:12;;;;;;;10.23;2.45;;;19.90;99.90;;;;;;4892765;29;20496;-76
2023/07/02 08:46:37;;;;;;;9.43;2.90;;;19.90;99.90;;;;;;4896846;29;20104;-79
2023/07/02 08:49:03;;;;;;;8.63;2.50;;;20.00;99.90;;;;;;4896959;29;20064;-79
2023/07/02 08:51:29;;;;;;;7.93;3.47;;;19.90;99.90;;;;;;4864583;29;20056;-79
2023/07/02 08:53:55;;;;;;;8.50;3.42;;;20.00;99.90;;;;;;4874612;29;20140;-79
2023/07/02 08:56:20;;;;;;;13.32;3.47;;;19.90;99.90;;;;;;4888066;29;20493;-79
2023/07/02 08:58:46;;;;;;;8.18;2.55;;;19.90;99.90;;;;;;4878027;29;20116;-79
2023/07/02 09:01:14;;;;;;;8.23;2.58;;;19.80;99.90;;;;;;4861509;29;20053;-79
2023/07/02 09:03:40;;;;;;;9.43;2.80;;;19.80;99.90;;;;;;4878426;29;20129;-80
2023/07/02 09:06:08;;;;;;;9.93;3.28;;;19.80;99.90;;;;;;4878615;29;20124;-79
2023/07/02 09:08:34;;;;;;;9.80;2.90;;;19.70;99.90;;;;;;4878292;29;20191;-79
2023/07/02 09:11:19;;;;;;;10.75;3.00;;;19.70;99.90;;;;;;4861505;29;20057;-79
2023/07/02 09:13:49;;;;;;;13.65;3.28;;;19.70;99.90;;;;;;4861157;29;20065;-79
2023/07/02 09:16:36;;;;;;;8.80;2.92;;;19.60;99.90;;;;;;4877813;29;20064;-79
2023/07/02 09:19:12;;;;;;;11.70;3.47;;;19.70;99.90;;;;;;4861518;29;20049;-79
2023/07/02 09:21:45;;;;;;;9.10;2.45;;;19.70;99.90;;;;;;4861733;29;20405;-79
2023/07/02 09:24:20;;;;;;;9.57;3.28;;;19.50;99.90;;;;;;4878370;29;20059;-80
2023/07/02 09:26:47;;;;;;;13.73;3.30;;;19.40;99.90;;;;;;4861874;29;20059;-80
2023/07/02 09:29:13;;;;;;;9.43;2.80;;;19.40;99.90;;;;;;4877340;29;20045;-78
2023/07/02 09:31:46;;;;;;;10.27;2.95;;;19.40;99.90;;;;;;4861383;29;20072;-79
2023/07/02 09:34:13;;;;;;;10.23;2.95;;;19.30;99.90;;;;;;4861185;29;20087;-78
2023/07/02 09:36:42;;;;;;;7.43;2.78;;;19.30;99.90;;;;;;4878002;29;20053;-78
2023/07/02 09:39:29;;;;;;;10.32;3.17;;;19.40;99.90;;;;;;4878020;29;20079;-78
2023/07/02 09:41:59;;;;;;;15.48;4.03;;;19.40;99.90;;;;;;4860972;29;20065;-79
2023/07/02 09:44:30;;;;;;;14.43;3.60;;;19.50;99.90;;;;;;4883364;29;20064;-79
2023/07/02 09:46:58;;;;;;;10.70;3.63;;;19.30;99.90;;;;;;4874304;29;20045;-79
2023/07/02 09:49:25;;;;;;;11.05;3.65;;;19.30;99.90;;;;;;4879904;29;20488;-78
2023/07/02 09:51:52;;;;;;;10.25;3.92;;;19.20;99.90;;;;;;4879946;29;20076;-79
2023/07/02 09:54:20;;;;;;;17.85;4.10;;;19.30;99.90;;;;;;4879494;29;20059;-79
2023/07/02 09:56:47;;;;;;;12.57;3.75;;;19.40;99.90;;;;;;4896977;29;20071;-79
2023/07/02 09:59:14;;;;;;;10.88;3.63;;;19.30;99.90;;;;;;4896628;29;20170;-79
2023/07/02 10:01:40;;;;;;;12.82;3.85;;;19.50;99.90;;;;;;4896584;29;20420;-79
2023/07/02 10:04:18;;;;;;;15.07;4.60;;;19.60;99.90;;;;;;4896568;29;20053;-79
2023/07/02 10:06:52;;;;;;;15.63;4.30;;;19.60;99.90;;;;;;4896679;29;20481;-77
2023/07/02 10:09:19;;;;;;;11.07;4.07;;;19.60;99.90;;;;;;4879376;29;20472;-79
2023/07/02 10:11:45;;;;;;;10.02;4.07;;;19.60;99.90;;;;;;4868896;29;20067;-77
2023/07/02 10:14:11;;;;;;;13.50;3.95;;;19.60;99.90;;;;;;4870189;29;20493;-77
2023/07/02 10:16:55;;;;;;;11.70;3.72;;;19.70;99.90;;;;;;4886073;29;20037;-79
2023/07/02 10:19:21;;;;;;;13.43;3.30;;;19.70;99.90;;;;;;4868230;29;20128;-78
2023/07/02 10:22:04;;;;;;;9.90;3.20;;;19.80;99.90;;;;;;4887371;29;20472;-78
2023/07/02 10:24:30;;;;;;;8.85;3.13;;;19.70;99.90;;;;;;4871191;29;20394;-79
2023/07/02 10:26:58;;;;;;;10.75;3.88;;;19.80;99.90;;;;;;4870287;29;20055;-79
2023/07/02 10:29:25;;;;;;;10.10;3.78;;;19.60;99.90;;;;;;4870909;29;20057;-79
2023/07/02 10:31:53;;;;;;;12.75;3.83;;;19.60;99.90;;;;;;4868838;29;20063;-78
2023/07/02 10:34:32;;;;;;;12.20;3.53;;;19.40;99.90;;;;;;4860735;29;20209;-77
2023/07/02 10:37:03;;;;;;;7.88;4.03;;;19.20;99.90;;;;;;4860456;29;20072;-75
2023/07/02 10:39:38;;;;;;;12.18;3.78;;;19.10;99.90;;;;;;4877042;29;20061;-75
2023/07/02 10:42:09;;;;;;;13.60;3.85;;;19.00;99.90;;;;;;4862988;29;20092;-75
2023/07/02 10:44:46;;;;;;;11.90;3.88;;;19.10;99.90;;;;;;4880632;29;20072;-76
2023/07/02 10:47:12;;;;;;;13.65;4.32;;;19.00;99.90;;;;;;4880479;29;20049;-76
2023/07/02 10:49:38;;;;;;;10.60;3.90;;;19.20;99.90;;;;;;4882693;29;20054;-76
2023/07/02 10:52:04;;;;;;;14.60;3.90;;;19.10;99.90;;;;;;4882228;29;20327;-76
2023/07/02 10:54:46;;;;;;;11.95;3.75;;;19.10;99.90;;;;;;4873499;29;20469;-75
2023/07/02 10:57:21;;;;;;;12.10;3.60;;;19.30;99.90;;;;;;4863325;29;20114;-76
2023/07/02 10:59:48;;;;;;;13.25;3.72;;;19.40;99.90;;;;;;4866498;29;20044;-76
2023/07/02 11:02:14;;;;;;;10.05;3.60;;;19.40;99.90;;;;;;4881980;29;20060;-76
2023/07/02 11:04:40;;;;;;;7.63;2.97;;;19.40;99.90;;;;;;4899001;29;20049;-75
2023/07/02 11:07:05;;;;;;;14.45;4.03;;;19.30;99.90;;;;;;4881792;29;20421;-75
2023/07/02 11:09:32;;;;;;;12.90;3.65;;;19.40;99.90;;;;;;4862970;29;20053;-76
2023/07/02 11:11:59;;;;;;;15.43;4.07;;;19.40;99.90;;;;;;4867782;29;20378;-76
2023/07/02 11:14:29;;;;;;;10.52;3.47;;;19.60;99.90;;;;;;4872173;29;20085;-76
2023/07/02 11:16:55;;;;;;;13.52;3.90;;;19.70;99.90;;;;;;4889671;29;20053;-75
2023/07/02 11:19:21;;;;;;;14.18;3.78;;;19.80;99.90;;;;;;4870685;29;20044;-75
2023/07/02 11:21:58;;;;;;;16.38;4.10;;;19.80;99.90;;;;;;4883204;29;20060;-77
2023/07/02 11:24:30;;;;;;;12.70;3.40;;;19.70;99.90;;;;;;4888475;29;20078;-80
2023/07/02 11:26:57;;;;;;;11.02;3.33;;;19.70;99.90;;;;;;4900531;29;20067;-80
2023/07/02 11:29:23;;;;;;;10.02;3.03;;;19.70;99.90;;;;;;4900732;29;20067;-74
2023/07/02 11:31:49;;;;;;;10.32;3.35;;;19.70;99.90;;;;;;4883889;29;20052;-73
2023/07/02 11:34:15;;;;;;;9.18;3.00;;;19.80;99.90;;;;;;4899275;29;20467;-73
2023/07/02 11:36:41;;;;;;;6.13;2.83;;;19.70;99.90;;;;;;4899532;29;20055;-73
2023/07/02 11:39:07;;;;;;;6.78;2.75;;;19.70;99.90;;;;;;4899502;29;20060;-73
2023/07/02 11:41:39;;;;;;;12.75;3.25;;;19.60;99.90;;;;;;4898971;29;20052;-72
2023/07/02 11:44:06;;;;;;;10.75;3.38;;;19.50;99.90;;;;;;4916452;29;20056;-73
2023/07/02 11:46:31;;;;;;;10.57;3.05;;;19.50;99.90;;;;;;4916134;29;20048;-73
2023/07/02 11:48:57;;;;;;;11.77;2.95;;;19.60;99.90;;;;;;4916531;29;20058;-73
2023/07/02 11:51:23;;;;;;;6.93;2.83;;;19.70;99.90;;;;;;4916088;29;20107;-73
2023/07/02 11:53:48;;;;;;;7.25;3.20;;;19.60;99.90;;;;;;4916615;29;20052;-73
2023/07/02 11:56:14;;;;;;;7.60;2.85;;;19.70;99.90;;;;;;4883615;29;20494;-73
2023/07/02 11:58:42;;;;;;;8.95;2.92;;;19.70;99.90;;;;;;4916694;29;20052;-73
2023/07/02 12:01:07;;;;;;;7.82;2.92;;;19.80;99.90;;;;;;4916586;29;20056;-73
2023/07/02 12:03:33;;;;;;;8.23;3.13;;;19.80;99.90;;;;;;4899253;29;20135;-73
2023/07/02 12:05:59;;;;;;;6.97;2.80;;;19.70;99.90;;;;;;4899079;29;20060;-73
2023/07/02 12:08:27;;;;;;;7.43;2.97;;;19.60;99.90;;;;;;4916151;29;20055;-73
2023/07/02 12:10:53;;;;;;;7.47;2.90;;;19.70;99.90;;;;;;4915858;29;20559;-73
2023/07/02 12:13:20;;;;;;;9.10;2.85;;;19.60;99.90;;;;;;4916003;29;20056;-73
2023/07/02 12:15:47;;;;;;;6.53;2.78;;;19.80;99.90;;;;;;4916082;29;20054;-73
2023/07/02 12:18:13;;;;;;;7.57;3.13;;;19.70;99.90;;;;;;4898950;29;20127;-73
2023/07/02 12:20:40;;;;;;;11.05;3.00;;;19.80;99.90;;;;;;4898995;29;20060;-73
2023/07/02 12:23:06;;;;;;;11.25;2.80;;;19.90;99.90;;;;;;4916171;29;20103;-73
2023/07/02 12:25:32;;;;;;;8.85;2.75;;;19.90;99.90;;;;;;4898557;29;20052;-73
2023/07/02 12:27:57;;;;;;;7.05;2.47;;;19.80;99.90;;;;;;4915898;29;20063;-73
2023/07/02 12:30:23;;;;;;;9.25;3.03;;;19.90;99.90;;;;;;4915849;29;20052;-73
2023/07/02 12:32:49;;;;;;;11.00;2.50;;;20.10;99.90;;;;;;4898615;29;20071;-73
2023/07/02 12:35:15;;;;;;;6.93;2.30;;;20.10;99.90;;;;;;4898614;29;20064;-73
2023/07/02 12:37:45;;;;;;;10.68;2.65;;;20.10;99.90;;;;;;4882908;29;20044;-73
2023/07/02 12:40:11;;;;;;;5.85;2.42;;;20.10;99.90;;;;;;4898704;29;20531;-73